sensor_id;sensor_type;location;lat;lon;timestamp;P1;durP1;ratioP1;P2;durP2;ratioP2
28547;SDS011;68292;49.600;8.746;2023-04-01T00:01:03;1.33;;;1.07;;
28547;SDS011;68292;49.600;8.746;2023-04-01T00:03:33;2.50;;;1.10;;
28547;SDS011;68292;49.600;8.746;2023-04-01T00:06:03;2.87;;;1.37;;
28547;SDS011;68292;49.600;8.746;2023-04-01T00:08:31;6.20;;;1.27;;
28547;SDS011;68292;49.600;8.746;2023-04-01T00:11:02;4.40;;;1.50;;
28547;SDS011;68292;49.600;8.746;2023-04-01T00:13:31;1.87;;;1.10;;
28547;SDS011;68292;49.600;8.746;2023-04-01T00:16:00;2.80;;;1.03;;
28547;SDS011;68292;49.600;8.746;2023-04-01T00:18:35;3.93;;;1.07;;
28547;SDS011;68292;49.600;8.746;2023-04-01T00:21:04;3.90;;;1.30;;
28547;SDS011;68292;49.600;8.746;2023-04-01T00:23:33;1.03;;;0.90;;
28547;SDS011;68292;49.600;8.746;2023-04-01T00:26:04;4.27;;;1.37;;
28547;SDS011;68292;49.600;8.746;2023-04-01T00:28:33;3.90;;;1.03;;
28547;SDS011;68292;49.600;8.746;2023-04-01T00:31:04;1.07;;;0.97;;
28547;SDS011;68292;49.600;8.746;2023-04-01T00:33:40;3.87;;;1.03;;
28547;SDS011;68292;49.600;8.746;2023-04-01T00:36:09;2.60;;;1.20;;
28547;SDS011;68292;49.600;8.746;2023-04-01T00:38:39;4.03;;;1.40;;
28547;SDS011;68292;49.600;8.746;2023-04-01T00:41:11;2.13;;;1.23;;
28547;SDS011;68292;49.600;8.746;2023-04-01T00:43:42;1.03;;;0.90;;
28547;SDS011;68292;49.600;8.746;2023-04-01T00:46:15;3.80;;;1.10;;
28547;SDS011;68292;49.600;8.746;2023-04-01T00:48:46;1.27;;;1.13;;
28547;SDS011;68292;49.600;8.746;2023-04-01T00:51:18;2.53;;;1.40;;
28547;SDS011;68292;49.600;8.746;2023-04-01T00:53:52;1.90;;;1.17;;
28547;SDS011;68292;49.600;8.746;2023-04-01T00:56:26;1.83;;;1.20;;
28547;SDS011;68292;49.600;8.746;2023-04-01T00:59:00;1.93;;;0.90;;
28547;SDS011;68292;49.600;8.746;2023-04-01T01:01:35;1.80;;;1.20;;
28547;SDS011;68292;49.600;8.746;2023-04-01T01:04:04;1.57;;;1.03;;
28547;SDS011;68292;49.600;8.746;2023-04-01T01:06:37;1.17;;;0.97;;
28547;SDS011;68292;49.600;8.746;2023-04-01T01:09:18;1.00;;;0.90;;
28547;SDS011;68292;49.600;8.746;2023-04-01T01:12:03;1.47;;;1.00;;
28547;SDS011;68292;49.600;8.746;2023-04-01T01:14:43;2.87;;;1.33;;
28547;SDS011;68292;49.600;8.746;2023-04-01T01:17:26;2.10;;;1.17;;
28547;SDS011;68292;49.600;8.746;2023-04-01T01:26:41;2.80;;;1.37;;
28547;SDS011;68292;49.600;8.746;2023-04-01T01:29:43;1.63;;;1.10;;
28547;SDS011;68292;49.600;8.746;2023-04-01T01:32:34;2.67;;;1.40;;
28547;SDS011;68292;49.600;8.746;2023-04-01T01:35:38;1.40;;;1.07;;
28547;SDS011;68292;49.600;8.746;2023-04-01T01:38:17;2.67;;;1.30;;
28547;SDS011;68292;49.600;8.746;2023-04-01T01:41:00;2.47;;;1.30;;
28547;SDS011;68292;49.600;8.746;2023-04-01T01:43:33;1.63;;;1.13;;
28547;SDS011;68292;49.600;8.746;2023-04-01T01:46:06;2.43;;;1.27;;
28547;SDS011;68292;49.600;8.746;2023-04-01T01:48:39;2.80;;;1.27;;
28547;SDS011;68292;49.600;8.746;2023-04-01T01:51:11;2.17;;;1.37;;
28547;SDS011;68292;49.600;8.746;2023-04-01T01:53:40;1.00;;;0.93;;
28547;SDS011;68292;49.600;8.746;2023-04-01T01:56:13;1.57;;;0.97;;
28547;SDS011;68292;49.600;8.746;2023-04-01T01:58:44;2.27;;;1.23;;
28547;SDS011;68292;49.600;8.746;2023-04-01T02:01:19;3.13;;;1.20;;
28547;SDS011;68292;49.600;8.746;2023-04-01T02:03:51;1.77;;;1.27;;
28547;SDS011;68292;49.600;8.746;2023-04-01T02:06:23;2.30;;;1.20;;
28547;SDS011;68292;49.600;8.746;2023-04-01T02:08:55;1.43;;;1.20;;
28547;SDS011;68292;49.600;8.746;2023-04-01T02:11:28;3.30;;;1.30;;
28547;SDS011;68292;49.600;8.746;2023-04-01T02:14:03;1.97;;;1.10;;
28547;SDS011;68292;49.600;8.746;2023-04-01T02:16:36;1.63;;;1.17;;
28547;SDS011;68292;49.600;8.746;2023-04-01T02:19:10;3.17;;;1.10;;
28547;SDS011;68292;49.600;8.746;2023-04-01T02:21:42;2.40;;;1.50;;
28547;SDS011;68292;49.600;8.746;2023-04-01T02:24:12;4.70;;;1.37;;
28547;SDS011;68292;49.600;8.746;2023-04-01T02:26:42;2.30;;;1.20;;
28547;SDS011;68292;49.600;8.746;2023-04-01T02:29:13;1.93;;;1.10;;
28547;SDS011;68292;49.600;8.746;2023-04-01T02:31:42;3.27;;;1.50;;
28547;SDS011;68292;49.600;8.746;2023-04-01T02:34:12;2.10;;;1.20;;
28547;SDS011;68292;49.600;8.746;2023-04-01T02:36:43;2.20;;;1.17;;
28547;SDS011;68292;49.600;8.746;2023-04-01T02:39:12;1.70;;;0.83;;
28547;SDS011;68292;49.600;8.746;2023-04-01T02:41:41;3.90;;;1.30;;
28547;SDS011;68292;49.600;8.746;2023-04-01T02:44:12;1.40;;;1.07;;
28547;SDS011;68292;49.600;8.746;2023-04-01T02:46:43;2.90;;;1.13;;
28547;SDS011;68292;49.600;8.746;2023-04-01T02:49:12;2.30;;;1.37;;
28547;SDS011;68292;49.600;8.746;2023-04-01T02:51:40;1.80;;;0.97;;
28547;SDS011;68292;49.600;8.746;2023-04-01T02:54:11;1.70;;;1.27;;
28547;SDS011;68292;49.600;8.746;2023-04-01T02:56:39;1.90;;;1.10;;
28547;SDS011;68292;49.600;8.746;2023-04-01T02:59:08;4.33;;;1.33;;
28547;SDS011;68292;49.600;8.746;2023-04-01T03:01:37;2.87;;;1.33;;
28547;SDS011;68292;49.600;8.746;2023-04-01T03:04:06;1.77;;;1.23;;
28547;SDS011;68292;49.600;8.746;2023-04-01T03:06:35;1.53;;;1.10;;
28547;SDS011;68292;49.600;8.746;2023-04-01T03:09:05;3.47;;;1.20;;
28547;SDS011;68292;49.600;8.746;2023-04-01T03:11:34;2.40;;;1.30;;
28547;SDS011;68292;49.600;8.746;2023-04-01T03:14:03;2.03;;;1.20;;
28547;SDS011;68292;49.600;8.746;2023-04-01T03:16:31;1.80;;;1.10;;
28547;SDS011;68292;49.600;8.746;2023-04-01T03:19:00;3.77;;;1.27;;
28547;SDS011;68292;49.600;8.746;2023-04-01T03:21:29;3.00;;;1.20;;
28547;SDS011;68292;49.600;8.746;2023-04-01T03:23:58;1.50;;;1.17;;
28547;SDS011;68292;49.600;8.746;2023-04-01T03:26:29;2.57;;;1.10;;
28547;SDS011;68292;49.600;8.746;2023-04-01T03:28:58;1.33;;;1.07;;
28547;SDS011;68292;49.600;8.746;2023-04-01T03:31:27;2.13;;;1.07;;
28547;SDS011;68292;49.600;8.746;2023-04-01T03:33:56;1.53;;;1.00;;
28547;SDS011;68292;49.600;8.746;2023-04-01T03:36:26;1.90;;;1.20;;
28547;SDS011;68292;49.600;8.746;2023-04-01T03:38:55;2.10;;;1.20;;
28547;SDS011;68292;49.600;8.746;2023-04-01T03:41:34;2.73;;;1.00;;
28547;SDS011;68292;49.600;8.746;2023-04-01T03:44:04;3.73;;;1.47;;
28547;SDS011;68292;49.600;8.746;2023-04-01T03:46:33;1.83;;;1.00;;
28547;SDS011;68292;49.600;8.746;2023-04-01T03:49:05;2.90;;;1.03;;
28547;SDS011;68292;49.600;8.746;2023-04-01T03:51:38;1.57;;;1.10;;
28547;SDS011;68292;49.600;8.746;2023-04-01T03:54:09;2.67;;;1.10;;
28547;SDS011;68292;49.600;8.746;2023-04-01T03:56:39;1.37;;;1.03;;
28547;SDS011;68292;49.600;8.746;2023-04-01T03:59:11;2.90;;;1.10;;
28547;SDS011;68292;49.600;8.746;2023-04-01T04:01:40;2.30;;;0.90;;
28547;SDS011;68292;49.600;8.746;2023-04-01T04:04:10;2.20;;;1.10;;
28547;SDS011;68292;49.600;8.746;2023-04-01T04:06:41;2.37;;;1.10;;
28547;SDS011;68292;49.600;8.746;2023-04-01T04:09:10;1.70;;;1.20;;
28547;SDS011;68292;49.600;8.746;2023-04-01T04:11:40;3.43;;;1.23;;
28547;SDS011;68292;49.600;8.746;2023-04-01T04:14:09;1.73;;;1.10;;
28547;SDS011;68292;49.600;8.746;2023-04-01T04:16:38;1.80;;;1.20;;
28547;SDS011;68292;49.600;8.746;2023-04-01T04:19:07;2.23;;;1.27;;
28547;SDS011;68292;49.600;8.746;2023-04-01T04:21:36;1.60;;;1.00;;
28547;SDS011;68292;49.600;8.746;2023-04-01T04:24:05;2.47;;;1.07;;
28547;SDS011;68292;49.600;8.746;2023-04-01T04:26:55;1.23;;;1.00;;
28547;SDS011;68292;49.600;8.746;2023-04-01T04:29:24;1.73;;;0.97;;
28547;SDS011;68292;49.600;8.746;2023-04-01T04:31:53;1.77;;;0.90;;
28547;SDS011;68292;49.600;8.746;2023-04-01T04:34:21;1.97;;;1.27;;
28547;SDS011;68292;49.600;8.746;2023-04-01T04:36:50;3.43;;;1.30;;
28547;SDS011;68292;49.600;8.746;2023-04-01T04:39:21;1.03;;;0.87;;
28547;SDS011;68292;49.600;8.746;2023-04-01T04:41:50;2.77;;;1.20;;
28547;SDS011;68292;49.600;8.746;2023-04-01T04:44:20;3.33;;;1.00;;
28547;SDS011;68292;49.600;8.746;2023-04-01T04:46:49;2.80;;;0.97;;
28547;SDS011;68292;49.600;8.746;2023-04-01T04:49:18;1.10;;;1.00;;
28547;SDS011;68292;49.600;8.746;2023-04-01T04:51:46;1.90;;;1.10;;
28547;SDS011;68292;49.600;8.746;2023-04-01T04:54:17;1.90;;;1.00;;
28547;SDS011;68292;49.600;8.746;2023-04-01T04:56:53;2.60;;;1.20;;
28547;SDS011;68292;49.600;8.746;2023-04-01T04:59:25;2.70;;;1.17;;
28547;SDS011;68292;49.600;8.746;2023-04-01T05:02:00;2.13;;;1.07;;
28547;SDS011;68292;49.600;8.746;2023-04-01T05:04:29;2.27;;;1.10;;
28547;SDS011;68292;49.600;8.746;2023-04-01T05:07:03;1.10;;;1.00;;
28547;SDS011;68292;49.600;8.746;2023-04-01T05:09:33;1.30;;;1.00;;
28547;SDS011;68292;49.600;8.746;2023-04-01T05:12:02;1.90;;;1.10;;
28547;SDS011;68292;49.600;8.746;2023-04-01T05:14:58;1.63;;;1.23;;
28547;SDS011;68292;49.600;8.746;2023-04-01T05:17:27;1.53;;;1.00;;
28547;SDS011;68292;49.600;8.746;2023-04-01T05:19:56;1.90;;;1.33;;
28547;SDS011;68292;49.600;8.746;2023-04-01T05:22:26;4.50;;;2.13;;
28547;SDS011;68292;49.600;8.746;2023-04-01T05:24:54;3.70;;;1.70;;
28547;SDS011;68292;49.600;8.746;2023-04-01T05:27:23;3.57;;;2.47;;
28547;SDS011;68292;49.600;8.746;2023-04-01T05:29:52;5.67;;;4.03;;
28547;SDS011;68292;49.600;8.746;2023-04-01T05:32:43;5.10;;;3.53;;
28547;SDS011;68292;49.600;8.746;2023-04-01T05:35:12;5.47;;;3.37;;
28547;SDS011;68292;49.600;8.746;2023-04-01T05:37:41;5.10;;;2.37;;
28547;SDS011;68292;49.600;8.746;2023-04-01T05:40:10;3.23;;;1.60;;
28547;SDS011;68292;49.600;8.746;2023-04-01T05:42:39;2.90;;;1.63;;
28547;SDS011;68292;49.600;8.746;2023-04-01T05:45:08;2.13;;;1.40;;
28547;SDS011;68292;49.600;8.746;2023-04-01T05:48:02;4.27;;;1.50;;
28547;SDS011;68292;49.600;8.746;2023-04-01T05:50:36;2.83;;;1.40;;
28547;SDS011;68292;49.600;8.746;2023-04-01T05:53:09;1.27;;;0.87;;
28547;SDS011;68292;49.600;8.746;2023-04-01T05:55:41;2.37;;;1.17;;
28547;SDS011;68292;49.600;8.746;2023-04-01T05:58:10;3.27;;;1.10;;
28547;SDS011;68292;49.600;8.746;2023-04-01T06:00:41;2.13;;;1.23;;
28547;SDS011;68292;49.600;8.746;2023-04-01T06:03:15;1.90;;;1.20;;
28547;SDS011;68292;49.600;8.746;2023-04-01T06:05:44;2.40;;;1.70;;
28547;SDS011;68292;49.600;8.746;2023-04-01T06:08:14;3.80;;;1.70;;
28547;SDS011;68292;49.600;8.746;2023-04-01T06:10:55;2.27;;;1.30;;
28547;SDS011;68292;49.600;8.746;2023-04-01T06:13:44;3.67;;;1.40;;
28547;SDS011;68292;49.600;8.746;2023-04-01T06:16:35;3.47;;;1.40;;
28547;SDS011;68292;49.600;8.746;2023-04-01T06:19:26;3.80;;;1.63;;
28547;SDS011;68292;49.600;8.746;2023-04-01T06:22:16;2.67;;;1.40;;
28547;SDS011;68292;49.600;8.746;2023-04-01T06:25:37;3.10;;;1.37;;
28547;SDS011;68292;49.600;8.746;2023-04-01T06:28:33;1.53;;;1.20;;
28547;SDS011;68292;49.600;8.746;2023-04-01T06:31:26;1.90;;;1.43;;
28547;SDS011;68292;49.600;8.746;2023-04-01T06:34:29;2.60;;;1.00;;
28547;SDS011;68292;49.600;8.746;2023-04-01T06:37:23;1.70;;;1.30;;
28547;SDS011;68292;49.600;8.746;2023-04-01T06:40:12;2.80;;;1.43;;
28547;SDS011;68292;49.600;8.746;2023-04-01T06:43:09;2.80;;;1.33;;
28547;SDS011;68292;49.600;8.746;2023-04-01T06:46:09;2.30;;;1.40;;
28547;SDS011;68292;49.600;8.746;2023-04-01T06:49:07;4.33;;;1.10;;
28547;SDS011;68292;49.600;8.746;2023-04-01T06:52:16;1.93;;;1.20;;
28547;SDS011;68292;49.600;8.746;2023-04-01T06:55:17;1.73;;;1.27;;
28547;SDS011;68292;49.600;8.746;2023-04-01T06:58:13;2.00;;;1.30;;
28547;SDS011;68292;49.600;8.746;2023-04-01T07:00:50;2.37;;;1.37;;
28547;SDS011;68292;49.600;8.746;2023-04-01T07:03:23;2.60;;;1.43;;
28547;SDS011;68292;49.600;8.746;2023-04-01T07:06:02;2.13;;;1.30;;
28547;SDS011;68292;49.600;8.746;2023-04-01T07:08:40;1.27;;;0.90;;
28547;SDS011;68292;49.600;8.746;2023-04-01T07:11:14;1.73;;;1.00;;
28547;SDS011;68292;49.600;8.746;2023-04-01T07:14:10;2.67;;;1.20;;
28547;SDS011;68292;49.600;8.746;2023-04-01T07:16:48;2.43;;;1.17;;
28547;SDS011;68292;49.600;8.746;2023-04-01T07:19:21;1.57;;;1.07;;
28547;SDS011;68292;49.600;8.746;2023-04-01T07:22:04;2.43;;;1.13;;
28547;SDS011;68292;49.600;8.746;2023-04-01T07:25:13;1.90;;;0.93;;
28547;SDS011;68292;49.600;8.746;2023-04-01T07:28:00;2.50;;;1.50;;
28547;SDS011;68292;49.600;8.746;2023-04-01T07:30:39;1.03;;;0.97;;
28547;SDS011;68292;49.600;8.746;2023-04-01T07:33:19;1.53;;;1.43;;
28547;SDS011;68292;49.600;8.746;2023-04-01T07:35:58;3.03;;;1.20;;
28547;SDS011;68292;49.600;8.746;2023-04-01T07:38:35;1.07;;;0.90;;
28547;SDS011;68292;49.600;8.746;2023-04-01T07:41:35;2.33;;;1.10;;
28547;SDS011;68292;49.600;8.746;2023-04-01T07:44:15;2.70;;;1.50;;
28547;SDS011;68292;49.600;8.746;2023-04-01T07:50:01;1.70;;;1.13;;
28547;SDS011;68292;49.600;8.746;2023-04-01T07:52:41;2.57;;;1.40;;
28547;SDS011;68292;49.600;8.746;2023-04-01T07:55:23;1.53;;;1.20;;
28547;SDS011;68292;49.600;8.746;2023-04-01T07:58:02;1.70;;;1.60;;
28547;SDS011;68292;49.600;8.746;2023-04-01T08:00:43;1.20;;;1.10;;
28547;SDS011;68292;49.600;8.746;2023-04-01T08:03:34;1.97;;;1.20;;
28547;SDS011;68292;49.600;8.746;2023-04-01T08:06:18;1.97;;;1.70;;
28547;SDS011;68292;49.600;8.746;2023-04-01T08:08:56;2.87;;;2.03;;
28547;SDS011;68292;49.600;8.746;2023-04-01T08:11:55;1.60;;;1.30;;
28547;SDS011;68292;49.600;8.746;2023-04-01T08:15:05;2.33;;;1.70;;
28547;SDS011;68292;49.600;8.746;2023-04-01T08:17:43;1.43;;;1.20;;
28547;SDS011;68292;49.600;8.746;2023-04-01T08:20:28;1.53;;;1.00;;
28547;SDS011;68292;49.600;8.746;2023-04-01T08:23:04;1.63;;;1.03;;
28547;SDS011;68292;49.600;8.746;2023-04-01T08:25:43;1.20;;;1.00;;
28547;SDS011;68292;49.600;8.746;2023-04-01T08:28:20;13.30;;;9.77;;
28547;SDS011;68292;49.600;8.746;2023-04-01T08:31:02;12.90;;;11.13;;
28547;SDS011;68292;49.600;8.746;2023-04-01T08:33:41;8.03;;;6.90;;
28547;SDS011;68292;49.600;8.746;2023-04-01T08:36:13;4.50;;;4.03;;
28547;SDS011;68292;49.600;8.746;2023-04-01T08:38:55;3.80;;;2.60;;
28547;SDS011;68292;49.600;8.746;2023-04-01T08:45:10;2.97;;;2.30;;
28547;SDS011;68292;49.600;8.746;2023-04-01T08:51:24;3.20;;;2.37;;
28547;SDS011;68292;49.600;8.746;2023-04-01T08:54:43;3.80;;;3.40;;
28547;SDS011;68292;49.600;8.746;2023-04-01T08:57:59;1.90;;;1.50;;
28547;SDS011;68292;49.600;8.746;2023-04-01T09:05:16;2.20;;;1.70;;
28547;SDS011;68292;49.600;8.746;2023-04-01T09:08:22;2.07;;;1.40;;
28547;SDS011;68292;49.600;8.746;2023-04-01T09:11:16;1.40;;;1.30;;
28547;SDS011;68292;49.600;8.746;2023-04-01T09:14:34;4.27;;;3.87;;
28547;SDS011;68292;49.600;8.746;2023-04-01T09:20:45;2.53;;;1.50;;
28547;SDS011;68292;49.600;8.746;2023-04-01T09:23:35;1.77;;;1.50;;
28547;SDS011;68292;49.600;8.746;2023-04-01T09:26:54;0.97;;;0.93;;
28547;SDS011;68292;49.600;8.746;2023-04-01T09:36:44;1.60;;;1.50;;
28547;SDS011;68292;49.600;8.746;2023-04-01T09:42:13;1.40;;;1.30;;
28547;SDS011;68292;49.600;8.746;2023-04-01T09:45:29;1.90;;;1.43;;
28547;SDS011;68292;49.600;8.746;2023-04-01T09:48:22;1.90;;;1.40;;
28547;SDS011;68292;49.600;8.746;2023-04-01T09:51:23;1.43;;;1.33;;
28547;SDS011;68292;49.600;8.746;2023-04-01T09:54:07;1.53;;;1.43;;
28547;SDS011;68292;49.600;8.746;2023-04-01T10:00:17;2.10;;;1.37;;
28547;SDS011;68292;49.600;8.746;2023-04-01T10:09:47;3.13;;;2.17;;
28547;SDS011;68292;49.600;8.746;2023-04-01T10:12:49;1.93;;;1.83;;
28547;SDS011;68292;49.600;8.746;2023-04-01T10:22:40;1.50;;;1.40;;
28547;SDS011;68292;49.600;8.746;2023-04-01T10:32:42;1.60;;;1.37;;
28547;SDS011;68292;49.600;8.746;2023-04-01T10:35:53;1.33;;;1.17;;
28547;SDS011;68292;49.600;8.746;2023-04-01T10:39:01;3.33;;;1.30;;
28547;SDS011;68292;49.600;8.746;2023-04-01T10:45:57;1.73;;;1.60;;
28547;SDS011;68292;49.600;8.746;2023-04-01T10:49:12;1.93;;;1.83;;
28547;SDS011;68292;49.600;8.746;2023-04-01T10:52:22;3.03;;;2.80;;
28547;SDS011;68292;49.600;8.746;2023-04-01T10:56:00;2.13;;;1.80;;
28547;SDS011;68292;49.600;8.746;2023-04-01T10:59:28;2.83;;;2.20;;
28547;SDS011;68292;49.600;8.746;2023-04-01T11:10:02;1.27;;;1.17;;
28547;SDS011;68292;49.600;8.746;2023-04-01T11:13:26;1.07;;;0.97;;
28547;SDS011;68292;49.600;8.746;2023-04-01T11:16:39;1.30;;;1.20;;
28547;SDS011;68292;49.600;8.746;2023-04-01T11:19:52;2.30;;;1.50;;
28547;SDS011;68292;49.600;8.746;2023-04-01T11:26:41;1.00;;;1.00;;
28547;SDS011;68292;49.600;8.746;2023-04-01T11:29:39;2.03;;;1.87;;
28547;SDS011;68292;49.600;8.746;2023-04-01T11:35:30;2.70;;;2.50;;
28547;SDS011;68292;49.600;8.746;2023-04-01T11:38:17;1.57;;;1.47;;
28547;SDS011;68292;49.600;8.746;2023-04-01T11:41:22;2.40;;;2.20;;
28547;SDS011;68292;49.600;8.746;2023-04-01T11:44:17;1.80;;;1.70;;
28547;SDS011;68292;49.600;8.746;2023-04-01T11:47:07;1.93;;;1.83;;
28547;SDS011;68292;49.600;8.746;2023-04-01T11:49:57;3.37;;;2.80;;
28547;SDS011;68292;49.600;8.746;2023-04-01T11:52:51;3.27;;;2.40;;
28547;SDS011;68292;49.600;8.746;2023-04-01T11:55:35;5.70;;;2.30;;
28547;SDS011;68292;49.600;8.746;2023-04-01T12:01:36;3.47;;;2.93;;
28547;SDS011;68292;49.600;8.746;2023-04-01T12:07:22;6.83;;;4.07;;
28547;SDS011;68292;49.600;8.746;2023-04-01T12:10:16;7.60;;;4.23;;
28547;SDS011;68292;49.600;8.746;2023-04-01T12:12:51;10.33;;;5.33;;
28547;SDS011;68292;49.600;8.746;2023-04-01T12:15:31;10.07;;;5.30;;
28547;SDS011;68292;49.600;8.746;2023-04-01T12:18:20;13.73;;;6.20;;
28547;SDS011;68292;49.600;8.746;2023-04-01T12:20:56;4.47;;;2.60;;
28547;SDS011;68292;49.600;8.746;2023-04-01T12:23:40;2.77;;;2.00;;
28547;SDS011;68292;49.600;8.746;2023-04-01T12:26:40;1.60;;;1.30;;
28547;SDS011;68292;49.600;8.746;2023-04-01T12:29:30;1.30;;;1.20;;
28547;SDS011;68292;49.600;8.746;2023-04-01T12:32:44;2.70;;;2.20;;
28547;SDS011;68292;49.600;8.746;2023-04-01T12:35:24;2.30;;;1.90;;
28547;SDS011;68292;49.600;8.746;2023-04-01T12:38:04;1.83;;;1.73;;
28547;SDS011;68292;49.600;8.746;2023-04-01T12:40:51;1.57;;;1.40;;
28547;SDS011;68292;49.600;8.746;2023-04-01T12:43:49;1.00;;;1.00;;
28547;SDS011;68292;49.600;8.746;2023-04-01T12:46:52;1.30;;;1.20;;
28547;SDS011;68292;49.600;8.746;2023-04-01T12:49:56;1.60;;;1.50;;
28547;SDS011;68292;49.600;8.746;2023-04-01T12:52:48;2.00;;;1.80;;
28547;SDS011;68292;49.600;8.746;2023-04-01T12:55:38;1.97;;;1.83;;
28547;SDS011;68292;49.600;8.746;2023-04-01T13:10:38;2.50;;;2.20;;
28547;SDS011;68292;49.600;8.746;2023-04-01T13:13:27;2.13;;;1.93;;
28547;SDS011;68292;49.600;8.746;2023-04-01T13:16:22;1.20;;;1.20;;
28547;SDS011;68292;49.600;8.746;2023-04-01T13:18:57;1.40;;;1.30;;
28547;SDS011;68292;49.600;8.746;2023-04-01T13:21:35;1.00;;;1.00;;
28547;SDS011;68292;49.600;8.746;2023-04-01T13:24:22;2.03;;;1.20;;
28547;SDS011;68292;49.600;8.746;2023-04-01T13:27:02;1.10;;;1.03;;
28547;SDS011;68292;49.600;8.746;2023-04-01T13:29:38;1.13;;;1.07;;
28547;SDS011;68292;49.600;8.746;2023-04-01T13:32:18;1.97;;;1.07;;
28547;SDS011;68292;49.600;8.746;2023-04-01T13:35:20;2.60;;;1.13;;
28547;SDS011;68292;49.600;8.746;2023-04-01T13:38:05;1.20;;;1.10;;
28547;SDS011;68292;49.600;8.746;2023-04-01T13:41:01;1.53;;;1.43;;
28547;SDS011;68292;49.600;8.746;2023-04-01T13:43:39;1.17;;;1.10;;
28547;SDS011;68292;49.600;8.746;2023-04-01T13:46:20;1.37;;;1.27;;
28547;SDS011;68292;49.600;8.746;2023-04-01T13:49:10;1.40;;;1.20;;
28547;SDS011;68292;49.600;8.746;2023-04-01T13:52:33;1.73;;;1.30;;
28547;SDS011;68292;49.600;8.746;2023-04-01T13:55:36;1.53;;;1.30;;
28547;SDS011;68292;49.600;8.746;2023-04-01T14:01:31;1.30;;;1.20;;
28547;SDS011;68292;49.600;8.746;2023-04-01T14:04:26;0.97;;;0.97;;
28547;SDS011;68292;49.600;8.746;2023-04-01T14:07:20;0.90;;;0.90;;
28547;SDS011;68292;49.600;8.746;2023-04-01T14:10:06;1.73;;;1.10;;
28547;SDS011;68292;49.600;8.746;2023-04-01T14:12:47;1.27;;;1.17;;
28547;SDS011;68292;49.600;8.746;2023-04-01T14:15:33;1.93;;;1.03;;
28547;SDS011;68292;49.600;8.746;2023-04-01T14:18:45;2.47;;;1.03;;
28547;SDS011;68292;49.600;8.746;2023-04-01T14:21:33;1.30;;;1.20;;
28547;SDS011;68292;49.600;8.746;2023-04-01T14:24:18;1.70;;;1.20;;
28547;SDS011;68292;49.600;8.746;2023-04-01T14:27:09;1.23;;;1.13;;
28547;SDS011;68292;49.600;8.746;2023-04-01T14:30:13;1.10;;;1.10;;
28547;SDS011;68292;49.600;8.746;2023-04-01T14:32:57;0.93;;;0.93;;
28547;SDS011;68292;49.600;8.746;2023-04-01T14:35:41;2.50;;;1.20;;
28547;SDS011;68292;49.600;8.746;2023-04-01T14:38:28;1.07;;;1.00;;
28547;SDS011;68292;49.600;8.746;2023-04-01T14:41:12;0.90;;;0.90;;
28547;SDS011;68292;49.600;8.746;2023-04-01T14:47:08;2.80;;;1.60;;
28547;SDS011;68292;49.600;8.746;2023-04-01T14:49:52;1.93;;;1.77;;
28547;SDS011;68292;49.600;8.746;2023-04-01T14:52:32;2.10;;;1.80;;
28547;SDS011;68292;49.600;8.746;2023-04-01T14:55:10;1.50;;;1.40;;
28547;SDS011;68292;49.600;8.746;2023-04-01T15:00:48;1.10;;;1.10;;
28547;SDS011;68292;49.600;8.746;2023-04-01T15:03:38;1.73;;;1.60;;
28547;SDS011;68292;49.600;8.746;2023-04-01T15:06:30;2.03;;;1.50;;
28547;SDS011;68292;49.600;8.746;2023-04-01T15:09:23;1.80;;;1.70;;
28547;SDS011;68292;49.600;8.746;2023-04-01T15:12:03;2.07;;;1.87;;
28547;SDS011;68292;49.600;8.746;2023-04-01T15:14:57;2.67;;;2.47;;
28547;SDS011;68292;49.600;8.746;2023-04-01T15:17:55;2.60;;;1.97;;
28547;SDS011;68292;49.600;8.746;2023-04-01T15:20:41;1.93;;;1.73;;
28547;SDS011;68292;49.600;8.746;2023-04-01T15:23:33;2.37;;;1.70;;
28547;SDS011;68292;49.600;8.746;2023-04-01T15:26:13;1.70;;;1.60;;
28547;SDS011;68292;49.600;8.746;2023-04-01T15:29:05;1.90;;;1.60;;
28547;SDS011;68292;49.600;8.746;2023-04-01T15:31:53;5.40;;;1.57;;
28547;SDS011;68292;49.600;8.746;2023-04-01T15:34:32;1.90;;;1.70;;
28547;SDS011;68292;49.600;8.746;2023-04-01T15:37:12;2.00;;;1.83;;
28547;SDS011;68292;49.600;8.746;2023-04-01T15:39:52;1.90;;;1.73;;
28547;SDS011;68292;49.600;8.746;2023-04-01T15:42:30;3.70;;;3.40;;
28547;SDS011;68292;49.600;8.746;2023-04-01T15:45:16;5.70;;;4.10;;
28547;SDS011;68292;49.600;8.746;2023-04-01T15:48:02;2.90;;;2.20;;
28547;SDS011;68292;49.600;8.746;2023-04-01T15:50:54;2.73;;;2.53;;
28547;SDS011;68292;49.600;8.746;2023-04-01T15:53:59;2.70;;;2.50;;
28547;SDS011;68292;49.600;8.746;2023-04-01T15:57:04;7.37;;;4.97;;
28547;SDS011;68292;49.600;8.746;2023-04-01T15:59:47;4.10;;;3.67;;
28547;SDS011;68292;49.600;8.746;2023-04-01T16:02:41;3.13;;;2.40;;
28547;SDS011;68292;49.600;8.746;2023-04-01T16:05:23;4.67;;;3.50;;
28547;SDS011;68292;49.600;8.746;2023-04-01T16:08:09;2.93;;;2.63;;
28547;SDS011;68292;49.600;8.746;2023-04-01T16:10:58;2.40;;;2.20;;
28547;SDS011;68292;49.600;8.746;2023-04-01T16:13:46;2.63;;;2.43;;
28547;SDS011;68292;49.600;8.746;2023-04-01T16:16:29;2.00;;;1.90;;
28547;SDS011;68292;49.600;8.746;2023-04-01T16:19:17;2.43;;;1.90;;
28547;SDS011;68292;49.600;8.746;2023-04-01T16:22:01;2.43;;;2.23;;
28547;SDS011;68292;49.600;8.746;2023-04-01T16:24:38;3.33;;;3.03;;
28547;SDS011;68292;49.600;8.746;2023-04-01T16:27:13;4.93;;;3.00;;
28547;SDS011;68292;49.600;8.746;2023-04-01T16:29:48;4.80;;;3.07;;
28547;SDS011;68292;49.600;8.746;2023-04-01T16:32:34;2.93;;;2.70;;
28547;SDS011;68292;49.600;8.746;2023-04-01T16:35:23;3.33;;;2.63;;
28547;SDS011;68292;49.600;8.746;2023-04-01T16:38:03;2.47;;;1.97;;
28547;SDS011;68292;49.600;8.746;2023-04-01T16:40:44;2.27;;;2.00;;
28547;SDS011;68292;49.600;8.746;2023-04-01T16:43:26;2.27;;;1.60;;
28547;SDS011;68292;49.600;8.746;2023-04-01T16:46:21;1.87;;;1.70;;
28547;SDS011;68292;49.600;8.746;2023-04-01T16:49:14;2.53;;;1.63;;
28547;SDS011;68292;49.600;8.746;2023-04-01T16:54:46;2.83;;;2.53;;
28547;SDS011;68292;49.600;8.746;2023-04-01T16:57:25;3.00;;;2.80;;
28547;SDS011;68292;49.600;8.746;2023-04-01T17:00:00;2.60;;;2.40;;
28547;SDS011;68292;49.600;8.746;2023-04-01T17:02:45;2.80;;;2.43;;
28547;SDS011;68292;49.600;8.746;2023-04-01T17:05:32;2.40;;;2.20;;
28547;SDS011;68292;49.600;8.746;2023-04-01T17:08:13;2.37;;;2.17;;
28547;SDS011;68292;49.600;8.746;2023-04-01T17:10:55;1.83;;;1.70;;
28547;SDS011;68292;49.600;8.746;2023-04-01T17:13:40;1.60;;;1.50;;
28547;SDS011;68292;49.600;8.746;2023-04-01T17:16:30;3.73;;;3.43;;
28547;SDS011;68292;49.600;8.746;2023-04-01T17:22:34;1.90;;;1.80;;
28547;SDS011;68292;49.600;8.746;2023-04-01T17:25:19;1.83;;;1.73;;
28547;SDS011;68292;49.600;8.746;2023-04-01T17:28:03;1.50;;;1.40;;
28547;SDS011;68292;49.600;8.746;2023-04-01T17:30:43;1.50;;;1.40;;
28547;SDS011;68292;49.600;8.746;2023-04-01T17:33:27;1.67;;;1.43;;
28547;SDS011;68292;49.600;8.746;2023-04-01T17:36:31;2.00;;;1.80;;
28547;SDS011;68292;49.600;8.746;2023-04-01T17:42:09;2.20;;;1.93;;
28547;SDS011;68292;49.600;8.746;2023-04-01T17:44:48;4.13;;;1.70;;
28547;SDS011;68292;49.600;8.746;2023-04-01T17:47:29;2.43;;;2.23;;
28547;SDS011;68292;49.600;8.746;2023-04-01T17:50:18;4.13;;;3.10;;
28547;SDS011;68292;49.600;8.746;2023-04-01T17:52:55;4.80;;;3.87;;
28547;SDS011;68292;49.600;8.746;2023-04-01T17:55:53;2.80;;;2.50;;
28547;SDS011;68292;49.600;8.746;2023-04-01T17:58:34;5.87;;;3.60;;
28547;SDS011;68292;49.600;8.746;2023-04-01T18:01:17;3.50;;;2.83;;
28547;SDS011;68292;49.600;8.746;2023-04-01T18:04:07;5.53;;;4.90;;
28547;SDS011;68292;49.600;8.746;2023-04-01T18:06:54;4.03;;;3.63;;
28547;SDS011;68292;49.600;8.746;2023-04-01T18:09:48;5.00;;;4.20;;
28547;SDS011;68292;49.600;8.746;2023-04-01T18:12:34;5.03;;;3.93;;
28547;SDS011;68292;49.600;8.746;2023-04-01T18:15:27;5.60;;;4.73;;